Bladensburg, Iowa
Current Conditions -  °F | °C
As of 7:53 AM on Saturday 20 Dec 2014 (Local Time) from KOTM Reporting Station
Haze Haze  
Wind Chill: 25°   Ceiling: 300
Heat Index: 31°   Visibility: 1.7mi
Dew Point: 30°   Wind: 6mph
Humidity: 96%   Direction: 170°S
Pressure: 30.2"   Gusts: NA
Location:  41.0803°N, 92.3054°W
Report Text: KOTM 201353Z AUTO 17005KT 1 3/4SM BR OVC003 M01/M01 A3020 RMK AO2 SLP235 T10061011
Loading
Personal Weather Stations






























Interactive Weather Map New forecast layout! Learn more

10-Day Weather Forecast

Advertisements
Track Severe Weather on mobile